createdAt,value
2019-04-12T09:43:00.571Z,73.97
2019-04-12T09:44:00.574Z,74.64
2019-04-12T09:45:00.627Z,74.64
2019-04-12T09:46:00.613Z,73.97
2019-04-12T09:47:00.985Z,74.16
2019-04-12T09:48:01.244Z,74.16
2019-04-12T09:49:01.098Z,74.16
2019-04-12T09:50:01.128Z,74.16
2019-04-12T09:51:00.873Z,74.6
2019-04-12T09:52:01.502Z,74.51
2019-04-12T09:53:01.568Z,74.79
2019-04-12T09:54:01.496Z,74.79
2019-04-12T09:55:01.605Z,74.6
2019-04-12T09:56:01.531Z,74.6
2019-04-12T09:57:01.542Z,74.6
2019-04-12T09:58:01.650Z,74.69
2019-04-12T09:59:02.258Z,74.88
2019-04-12T10:01:02.613Z,74.88
2019-04-12T10:02:15.725Z,74.32
2019-04-12T10:03:02.301Z,74.22
2019-04-12T10:04:02.705Z,74.79
2019-04-12T10:05:02.859Z,74.32
2019-04-12T10:06:03.615Z,74.13
2019-04-12T10:07:03.592Z,73.46
2019-04-12T10:08:03.596Z,73.56
2019-04-12T10:09:04.088Z,73.94
2019-04-12T10:10:03.787Z,73.94
2019-04-12T10:11:04.319Z,73.75
2019-04-12T10:12:04.230Z,73.75
2019-04-12T10:13:04.425Z,73.65
2019-04-12T10:14:07.002Z,73.75
2019-04-12T10:15:05.202Z,73.27
2019-04-12T10:16:05.012Z,73.6
2019-04-12T10:17:04.923Z,73.08
2019-04-12T10:18:05.058Z,73.65
2019-04-12T10:19:05.643Z,72.84
2019-04-12T10:20:05.682Z,73.03
2019-04-12T10:21:05.235Z,72.93
2019-04-12T10:22:05.557Z,72.84
2019-04-12T10:23:05.560Z,73.12
2019-04-12T10:24:06.013Z,72.74
2019-04-12T10:25:06.155Z,71.89
2019-04-12T10:26:05.795Z,71.89
2019-04-12T10:27:06.080Z,71.98
2019-04-12T10:28:06.117Z,72.27
2019-04-12T10:29:06.137Z,71.89
2019-04-12T10:30:06.281Z,71.51
2019-04-12T10:31:05.913Z,71.7
2019-04-12T10:32:06.631Z,71.89
2019-04-12T10:33:06.767Z,71.51
2019-04-12T10:34:06.901Z,71.36
2019-04-12T10:35:06.552Z,70.98
2019-04-12T10:36:07.667Z,70.5
2019-04-12T10:37:07.465Z,69.27
2019-04-12T10:38:07.494Z,68.98
2019-04-12T10:39:07.728Z,68.04
2019-04-12T10:40:10.657Z,67.27
2019-04-12T10:41:07.404Z,66.93
2019-04-12T10:42:07.704Z,66.27
2019-04-12T10:43:07.454Z,66.17
2019-04-12T10:44:08.215Z,65.79
2019-04-12T10:45:08.140Z,65.31
2019-04-12T10:46:07.899Z,64.84
2019-04-12T10:47:08.304Z,64.27
2019-04-12T10:48:08.332Z,64.75
2019-04-12T10:49:08.468Z,64.84
2019-04-12T10:50:08.382Z,64.37
2019-04-12T10:51:08.405Z,64.08
2019-04-12T10:52:08.818Z,64.27
2019-04-12T10:53:09.320Z,64.37
2019-04-12T10:54:08.957Z,64.56
2019-04-12T10:55:09.516Z,64.27
2019-04-12T10:56:10.207Z,64.27
2019-04-12T10:57:09.958Z,64.37
2019-04-12T10:58:10.089Z,64.37
2019-04-12T10:59:10.007Z,64.75
2019-04-12T11:00:13.234Z,65.12
2019-04-12T11:01:13.650Z,65.19
2019-04-12T11:02:13.910Z,65.5
2019-04-12T11:03:13.562Z,65.47
2019-04-12T11:04:13.860Z,65.47
2019-04-12T11:05:13.875Z,65.37
2019-04-12T11:06:14.065Z,65.31
2019-04-12T11:07:13.933Z,65.22
2019-04-12T11:08:14.120Z,65.6
2019-04-12T11:09:14.487Z,65.6
2019-04-12T11:10:14.167Z,65.5
2019-04-12T11:11:16.690Z,66.08
2019-04-12T11:12:14.322Z,65.98
2019-04-12T11:13:13.971Z,66.52
2019-04-12T11:14:14.355Z,66.99
2019-04-12T11:15:24.783Z,67.46
2019-04-12T11:16:27.006Z,67.65
2019-04-12T11:17:24.146Z,68.07
2019-04-12T11:18:24.567Z,67.21
2019-04-12T11:19:24.974Z,66.93
2019-04-12T11:20:25.111Z,66.55
2019-04-12T11:21:25.405Z,66.36
2019-04-12T11:22:25.046Z,65.88
2019-04-12T11:23:25.081Z,65.41
2019-04-12T11:24:25.115Z,65.12
2019-04-12T11:25:31.654Z,65.31
2019-04-12T11:26:25.152Z,65.79
2019-04-12T11:27:25.174Z,66.08
2019-04-12T11:28:25.589Z,66.27
2019-04-12T11:29:25.613Z,66.33
2019-04-12T11:30:25.744Z,66.33
2019-04-12T11:31:25.396Z,66.14
2019-04-12T11:32:25.697Z,66.61
2019-04-12T11:33:25.715Z,66.42
2019-04-12T11:34:25.743Z,66.61
2019-04-12T11:35:25.874Z,67.18
2019-04-12T11:36:25.792Z,66.89
2019-04-12T11:37:25.557Z,67.37
2019-04-12T11:38:25.965Z,68.04
2019-04-12T11:39:26.454Z,67.75
2019-04-12T11:40:26.381Z,68.13
2019-04-12T11:41:26.405Z,67.94
2019-04-12T11:42:26.420Z,67.94
2019-04-12T11:43:26.844Z,67.75
2019-04-12T11:44:26.699Z,67.75
2019-04-12T11:45:26.891Z,68.04
2019-04-12T11:46:40.269Z,67.59
2019-04-12T11:47:39.604Z,67.69
2019-04-12T11:48:39.732Z,67.88
2019-04-12T11:49:39.672Z,67.88
2019-04-12T11:50:39.811Z,67.88
2019-04-12T11:51:40.465Z,67.88
2019-04-12T11:52:40.498Z,67.88
2019-04-12T11:53:41.002Z,67.5
2019-04-12T11:54:40.532Z,67.5
2019-04-12T11:55:40.967Z,67.21
2019-04-12T11:56:41.118Z,67.5
2019-04-12T11:57:40.977Z,67.69
2019-04-12T11:58:51.090Z,67.5
2019-04-12T11:59:50.187Z,68.07
2019-04-12T12:00:50.500Z,67.31
2019-04-12T12:01:50.688Z,67.21
2019-04-12T12:02:51.199Z,67.88
2019-04-12T12:03:51.000Z,67.88
2019-04-12T12:04:51.067Z,67.69
2019-04-12T12:05:51.081Z,67.4
2019-04-12T12:06:51.244Z,67.5
2019-04-12T12:07:52.955Z,66.93
2019-04-12T12:08:52.788Z,68.07
2019-04-12T12:09:52.945Z,67.88
2019-04-12T12:10:53.139Z,68.13
2019-04-12T12:11:52.787Z,68.51
2019-04-12T12:12:53.103Z,68.41
2019-04-12T12:13:52.854Z,68.6
2019-04-12T12:14:53.234Z,68.41
2019-04-12T12:15:53.860Z,68.6
2019-04-12T12:16:53.817Z,68.32
2019-04-12T12:17:54.079Z,68.32
2019-04-12T12:18:54.089Z,68.64
2019-04-12T12:19:54.515Z,68.64
2019-04-12T12:20:54.594Z,68.79
2019-04-12T12:21:56.512Z,68.6
2019-04-12T12:22:55.060Z,68.73
2019-04-12T12:23:55.794Z,68.26
2019-04-12T12:24:55.725Z,68.64
2019-04-12T12:25:55.710Z,68.16
2019-04-12T12:26:55.785Z,67.53
2019-04-12T12:27:55.925Z,67.02
2019-04-12T12:28:56.448Z,66.83
2019-04-12T12:29:56.368Z,66.3
2019-04-12T12:30:56.523Z,65.92
2019-04-12T12:31:56.841Z,65.54
2019-04-12T12:32:56.980Z,65.16
2019-04-12T12:33:56.816Z,65.35
2019-04-12T12:34:57.263Z,65.44
2019-04-12T12:35:56.975Z,65.82
2019-04-12T12:36:57.213Z,65.54
2019-04-12T12:37:57.523Z,66.01
2019-04-12T12:38:57.677Z,66.11
2019-04-12T12:39:57.800Z,65.44
2019-04-12T12:40:57.859Z,65.82
2019-04-12T12:41:57.971Z,66.49
2019-04-12T12:42:57.891Z,66.58
2019-04-12T12:43:57.901Z,66.87
2019-04-12T12:44:57.949Z,66.87
2019-04-12T12:45:58.363Z,66.96
2019-04-12T12:46:58.798Z,67.97
2019-04-12T12:47:58.820Z,68.16
2019-04-12T12:48:59.117Z,69.11
2019-04-12T12:49:59.186Z,69.3
2019-04-12T12:50:59.356Z,69.59
2019-04-12T12:51:59.000Z,69.4
2019-04-12T12:52:59.341Z,69.49
2019-04-12T12:53:59.340Z,69.59
2019-04-12T12:54:59.213Z,70.35
2019-04-12T12:55:59.595Z,70.88
2019-04-12T12:56:59.532Z,71.26
2019-04-12T12:57:59.924Z,71.73
2019-04-12T12:58:59.688Z,71.92
2019-04-12T12:59:59.982Z,71.83
2019-04-12T13:01:00.116Z,71.73
2019-04-12T13:02:00.030Z,72.02
2019-04-12T13:03:00.050Z,71.64
2019-04-12T13:03:59.814Z,71.92
2019-04-12T13:05:00.202Z,72.02
2019-04-12T13:06:05.050Z,72.78
2019-04-12T13:07:04.872Z,72.21
2019-04-12T13:08:05.229Z,72.21
2019-04-12T13:09:05.540Z,72.4
2019-04-12T13:10:06.417Z,72.78
2019-04-12T13:11:06.798Z,72.97
2019-04-12T13:12:07.164Z,72.68
2019-04-12T13:13:07.232Z,72.78
2019-04-12T13:14:07.495Z,73.07
2019-04-12T13:15:07.482Z,73.44
2019-04-12T13:16:07.896Z,73.44
2019-04-12T13:17:07.902Z,73.44
2019-04-12T13:18:07.656Z,73.92
2019-04-12T13:19:07.893Z,73.82
2019-04-12T13:20:07.846Z,74.3
2019-04-12T13:21:08.234Z,74.11
2019-04-12T13:22:08.254Z,74.2
2019-04-12T13:23:08.639Z,74.2
2019-04-12T13:24:09.070Z,74.68
2019-04-12T13:25:08.999Z,74.87
2019-04-12T13:26:09.022Z,74.68
2019-04-12T13:27:09.045Z,74.68
2019-04-12T13:28:09.130Z,74.39
2019-04-12T13:29:09.559Z,74.58
2019-04-12T13:30:09.810Z,74.68
2019-04-12T13:31:09.697Z,74.68
2019-04-12T13:32:09.726Z,74.96
2019-04-12T13:33:09.836Z,74.77
2019-04-12T13:34:09.975Z,74.58
2019-04-12T13:35:11.546Z,74.96
2019-04-12T13:36:11.454Z,74.58
2019-04-12T13:37:10.248Z,74.68
2019-04-12T13:38:10.695Z,74.2
2019-04-12T13:39:10.678Z,74.49
2019-04-12T13:40:10.748Z,74.77
2019-04-12T13:41:10.701Z,74.2
2019-04-12T13:42:10.790Z,74.39
2019-04-12T13:43:10.667Z,74.35
2019-04-12T13:44:11.123Z,73.79
2019-04-12T13:45:11.410Z,74.3
2019-04-12T13:46:11.202Z,74.26
2019-04-12T13:47:11.478Z,74.35
2019-04-12T13:48:11.303Z,74.58
2019-04-12T13:49:11.488Z,74.64
2019-04-12T13:50:11.281Z,74.96
2019-04-12T13:51:11.062Z,74.87
2019-04-12T13:52:11.595Z,74.96
2019-04-12T13:53:11.679Z,75.05
2019-04-12T13:54:11.336Z,74.77
2019-04-12T13:55:11.403Z,74.68
2019-04-12T13:56:11.671Z,74.87
2019-04-12T13:57:11.650Z,74.68
2019-04-12T13:58:11.705Z,74.77
2019-04-12T13:59:11.613Z,74.68
2019-04-12T14:00:24.308Z,74.68
2019-04-12T14:01:24.315Z,74.39
2019-04-12T14:02:24.456Z,74.77
2019-04-12T14:03:24.603Z,74.39
2019-04-12T14:04:24.400Z,74.49
2019-04-12T14:05:24.980Z,74.3
2019-04-12T14:06:24.837Z,73.92
2019-04-12T14:07:25.431Z,74.39
2019-04-12T14:08:25.454Z,74.11
2019-04-12T14:09:25.475Z,74.68
2019-04-12T14:10:25.538Z,74.39
2019-04-12T14:11:25.655Z,74.39
2019-04-12T14:12:25.581Z,74.39
2019-04-12T14:13:25.682Z,74.39
2019-04-12T14:14:25.382Z,74.49
2019-04-12T14:15:26.896Z,74.49
2019-04-12T14:16:26.100Z,74.58
2019-04-12T14:17:26.033Z,74.77
2019-04-12T14:18:26.151Z,75.15
2019-04-12T14:19:26.549Z,75.15
2019-04-12T14:20:26.427Z,75.24
2019-04-12T14:21:26.837Z,75.53
2019-04-12T14:22:27.372Z,75.43
2019-04-12T14:23:26.630Z,75.24
2019-04-12T14:24:27.441Z,75.43
2019-04-12T14:25:27.255Z,74.68
2019-04-12T14:26:26.889Z,75.24
2019-04-12T14:27:26.934Z,75.34
2019-04-12T14:28:33.809Z,75.34
2019-04-12T14:29:33.884Z,75.34
2019-04-12T14:30:36.381Z,75.81
2019-04-12T14:31:35.888Z,75.72
2019-04-12T14:32:35.878Z,75.72
2019-04-12T14:33:36.387Z,75.72
2019-04-12T14:34:36.046Z,75.72
2019-04-12T14:35:36.425Z,75.81
2019-04-12T14:36:36.552Z,76.48
2019-04-12T14:37:36.629Z,76.95
2019-04-12T14:38:36.844Z,77.11
2019-04-12T14:39:37.243Z,77.01
2019-04-12T14:40:45.539Z,77.77
2019-04-12T14:41:39.403Z,77.77
2019-04-12T14:42:37.425Z,78.43
2019-04-12T14:43:37.348Z,78.34
2019-04-12T14:44:37.368Z,78.43
2019-04-12T14:45:37.097Z,78.43
2019-04-12T14:46:37.135Z,78.34
2019-04-12T14:47:38.180Z,78.62
2019-04-12T14:48:37.855Z,78.43
2019-04-12T14:49:38.298Z,78.43
2019-04-12T14:50:38.042Z,79.28
2019-04-12T14:51:38.499Z,79.38
2019-04-12T14:52:38.610Z,79.47
2019-04-12T14:53:38.540Z,79.47
2019-04-12T14:54:38.893Z,79.66
2019-04-12T14:55:39.312Z,79.76
2019-04-12T14:56:39.463Z,79.38
2019-04-12T14:57:39.402Z,79.38
2019-04-12T14:58:39.793Z,79.66
2019-04-12T14:59:42.506Z,80.62
2019-04-12T15:00:47.873Z,80.99
2019-04-12T15:01:40.145Z,81.85
2019-04-12T15:02:40.031Z,81.75
2019-04-12T15:03:40.133Z,81.94
2019-04-12T15:04:40.507Z,81.85
2019-04-12T15:05:40.950Z,82.23
2019-04-12T15:06:41.045Z,82.6
2019-04-12T15:07:41.087Z,82.32
2019-04-12T15:08:41.097Z,82.13
2019-04-12T15:09:41.601Z,81.56
2019-04-12T15:10:41.677Z,81.56
2019-04-12T15:11:41.427Z,82.42
2019-04-12T15:12:42.049Z,82.42
2019-04-12T15:13:42.347Z,82.32
2019-04-12T15:14:42.482Z,82.13
2019-04-12T15:15:42.835Z,81.94
2019-04-12T15:16:42.840Z,81.85
2019-04-12T15:17:43.170Z,81.56
2019-04-12T15:18:43.309Z,81.56
2019-04-12T15:19:43.229Z,80.99
2019-04-12T15:20:43.253Z,81.09
2019-04-12T15:21:43.593Z,81.18
2019-04-12T15:22:43.751Z,81.09
2019-04-12T15:23:43.655Z,81.18
2019-04-12T15:24:43.662Z,81.18
2019-04-12T15:25:43.689Z,80.52
2019-04-12T15:26:43.801Z,80.71
2019-04-12T15:27:44.177Z,79.95
2019-04-12T15:28:44.498Z,80.04
2019-04-12T15:29:44.600Z,80.33
2019-04-12T15:30:44.344Z,80.43
2019-04-12T15:31:44.633Z,79.57
2019-04-12T15:32:44.760Z,79.66
2019-04-12T15:33:44.408Z,79.28
2019-04-12T15:34:44.789Z,79
2019-04-12T15:35:44.849Z,79
2019-04-12T15:36:44.829Z,78.43
2019-04-12T15:37:44.961Z,78.15
2019-04-12T15:38:44.872Z,78.15
2019-04-12T15:39:44.992Z,78.53
2019-04-12T15:40:45.007Z,78.05
2019-04-12T15:41:45.143Z,77.96
2019-04-12T15:42:45.063Z,77.67
2019-04-12T15:43:45.087Z,77.58
2019-04-12T15:44:45.156Z,77.77
2019-04-12T15:45:45.494Z,77.77
2019-04-12T15:46:45.458Z,77.71
2019-04-12T15:47:45.643Z,77.33
2019-04-12T15:48:45.674Z,77.33
2019-04-12T15:49:45.697Z,76.95
2019-04-12T15:50:45.450Z,77.24
2019-04-12T15:51:46.171Z,76.86
2019-04-12T15:52:46.113Z,76.95
2019-04-12T15:53:46.179Z,77.05
2019-04-12T15:54:46.209Z,76.86
2019-04-12T15:55:46.231Z,76.67
2019-04-12T15:56:46.671Z,76.95
2019-04-12T15:57:46.585Z,77.58
2019-04-12T15:58:46.341Z,77.29
2019-04-12T15:59:46.914Z,77.58
2019-04-12T16:00:50.883Z,77.77
2019-04-12T16:01:47.201Z,77.96
2019-04-12T16:02:47.119Z,77.86
2019-04-12T16:03:47.252Z,77.67
2019-04-12T16:04:47.274Z,77.67
2019-04-12T16:05:47.033Z,77.77
2019-04-12T16:06:47.436Z,77.58
2019-04-12T16:07:47.614Z,77.77
2019-04-12T16:08:47.376Z,77.86
2019-04-12T16:09:47.797Z,77.67
2019-04-12T16:10:48.295Z,77.67
2019-04-12T16:11:48.217Z,77.58
2019-04-12T16:12:48.654Z,77.77
2019-04-12T16:13:48.799Z,77.86
2019-04-12T16:14:48.926Z,77.86
2019-04-12T16:15:48.849Z,77.96
2019-04-12T16:16:49.229Z,78.24
2019-04-12T16:17:48.991Z,77.86
2019-04-12T16:18:49.396Z,77.67
2019-04-12T16:19:49.519Z,77.77
2019-04-12T16:20:49.179Z,77.86
2019-04-12T16:21:49.466Z,77.2
2019-04-12T16:22:49.220Z,77.48
2019-04-12T16:23:49.891Z,77.48
2019-04-12T16:24:49.768Z,77.67
2019-04-12T16:25:49.991Z,77.86
2019-04-12T16:26:49.957Z,77.77
2019-04-12T16:27:50.386Z,78.15
2019-04-12T16:28:50.513Z,78.53
2019-04-12T16:29:50.442Z,78.62
2019-04-12T16:30:50.623Z,78.62
2019-04-12T16:31:50.776Z,78.34
2019-04-12T16:32:51.192Z,79
2019-04-12T16:33:51.324Z,78.72
2019-04-12T16:34:51.475Z,79
2019-04-12T16:35:51.507Z,79.57
2019-04-12T16:36:51.532Z,79.57
2019-04-12T16:37:51.683Z,79.57
2019-04-12T16:38:51.573Z,79.57
2019-04-12T16:39:51.332Z,79.57
2019-04-12T16:40:51.699Z,80.04
2019-04-12T16:41:52.117Z,79.95
2019-04-12T16:42:52.628Z,79.66
2019-04-12T16:43:52.284Z,79.76
2019-04-12T16:44:52.447Z,79.95
2019-04-12T16:45:53.119Z,79.76
2019-04-12T16:46:53.269Z,80.24
2019-04-12T16:47:53.400Z,80.43
2019-04-12T16:48:53.250Z,80.24
2019-04-12T16:49:53.346Z,80.04
2019-04-12T16:50:53.368Z,80.71
2019-04-12T16:51:53.872Z,80.71
2019-04-12T16:52:53.820Z,80.62
2019-04-12T16:53:54.222Z,80.62
2019-04-12T16:54:54.618Z,80.57
2019-04-12T16:55:54.487Z,80.48
2019-04-12T16:56:55.266Z,80.62
2019-04-12T16:57:55.203Z,80.52
2019-04-12T16:58:55.236Z,80.67
2019-04-12T16:59:55.261Z,80.99
2019-04-12T17:00:55.006Z,81.09
2019-04-12T17:02:06.816Z,80.9
2019-04-12T17:02:55.434Z,80.8
2019-04-12T17:03:55.569Z,80.95
2019-04-12T17:04:55.760Z,80.86
2019-04-12T17:05:55.788Z,81.05
2019-04-12T17:06:56.020Z,81.24
2019-04-12T17:07:55.941Z,81.52
2019-04-12T17:08:56.343Z,81.71
2019-04-12T17:09:56.369Z,82.37
2019-04-12T17:10:56.884Z,82.37
2019-04-12T17:11:56.801Z,82.28
2019-04-12T17:12:56.828Z,82.56
2019-04-12T17:13:56.957Z,82.28
2019-04-12T17:14:57.128Z,82.75
2019-04-12T17:15:57.241Z,82.47
2019-04-12T17:16:57.153Z,82.75
2019-04-12T17:17:57.308Z,83.23
2019-04-12T17:18:57.780Z,83.23
2019-04-12T17:19:57.947Z,83.32
2019-04-12T17:20:58.034Z,83.23
2019-04-12T17:21:57.858Z,83.8
2019-04-12T17:22:57.872Z,83.7
2019-04-12T17:23:57.634Z,83.89
2019-04-12T17:25:09.327Z,83.89
2019-04-12T17:26:08.656Z,84.17
2019-04-12T17:27:09.085Z,83.89
2019-04-12T17:28:09.260Z,84.08
2019-04-12T17:29:09.014Z,83.89
2019-04-12T17:30:09.530Z,83.8
2019-04-12T17:31:09.455Z,83.8
2019-04-12T17:32:09.476Z,84.08
2019-04-12T17:33:09.228Z,84.17
2019-04-12T17:34:09.252Z,84.17
2019-04-12T17:35:10.021Z,84.27
2019-04-12T17:36:09.672Z,84.84
2019-04-12T17:37:09.967Z,84.27
2019-04-12T17:38:10.368Z,84.65
2019-04-12T17:39:10.118Z,84.74
2019-04-12T17:40:10.895Z,84.55
2019-04-12T17:41:10.545Z,84.65
2019-04-12T17:42:10.586Z,84.84
2019-04-12T17:43:11.259Z,84.27
2019-04-12T17:44:11.300Z,83.8
2019-04-12T17:45:11.578Z,84.17
2019-04-12T17:46:11.495Z,83.8
2019-04-12T17:47:11.517Z,84.08
2019-04-12T17:48:11.278Z,84.17
2019-04-12T17:49:11.567Z,84.17
2019-04-12T17:50:12.064Z,84.27
2019-04-12T17:51:12.199Z,84.36
2019-04-12T17:52:11.958Z,84.17
2019-04-12T17:53:12.257Z,84.17
2019-04-12T17:54:12.778Z,84.27
2019-04-12T17:55:13.274Z,84.84
2019-04-12T17:56:12.440Z,84.46
2019-04-12T17:57:12.732Z,84.55
2019-04-12T17:58:12.774Z,84.46
2019-04-12T17:59:12.885Z,84.55
2019-04-12T18:00:25.533Z,84.55
2019-04-12T18:01:12.805Z,84.74
2019-04-12T18:02:12.863Z,84.65
2019-04-12T18:03:13.209Z,85.31
2019-04-12T18:04:13.324Z,85.13
2019-04-12T18:05:13.242Z,85.41
2019-04-12T18:06:13.589Z,85.41
2019-04-12T18:07:13.415Z,85.31
2019-04-12T18:08:14.044Z,85.5
2019-04-12T18:09:13.860Z,85.5
2019-04-12T18:10:14.158Z,85.41
2019-04-12T18:11:14.235Z,84.65
2019-04-12T18:12:14.954Z,84.74
2019-04-12T18:13:15.022Z,84.27
2019-04-12T18:14:15.053Z,84.74
2019-04-12T18:15:15.409Z,84.55
2019-04-12T18:16:15.427Z,84.74
2019-04-12T18:17:15.561Z,84.84
2019-04-12T18:18:15.470Z,85.03
2019-04-12T18:19:15.510Z,84.84
2019-04-12T18:20:15.842Z,84.94
2019-04-12T18:21:16.056Z,84.55
2019-04-12T18:22:15.974Z,83.8
2019-04-12T18:23:15.724Z,83.42
2019-04-12T18:24:16.296Z,83.04
2019-04-12T18:25:16.322Z,83.23
2019-04-12T18:26:16.734Z,82.56
2019-04-12T18:27:17.025Z,82.47
2019-04-12T18:28:17.035Z,82.18
2019-04-12T18:29:17.097Z,82.18
2019-04-12T18:30:17.789Z,82.28
2019-04-12T18:31:17.697Z,82.09
2019-04-12T18:32:17.459Z,81.99
2019-04-12T18:33:17.747Z,82.37
2019-04-12T18:34:17.793Z,82.37
2019-04-12T18:35:17.890Z,82.47
2019-04-12T18:36:17.814Z,82.18
2019-04-12T18:37:17.893Z,81.81
2019-04-12T18:38:17.915Z,82.47
2019-04-12T18:39:17.947Z,82.47
2019-04-12T18:40:17.930Z,82.56
2019-04-12T18:41:18.053Z,82.18
2019-04-12T18:42:18.396Z,81.81
2019-04-12T18:43:18.727Z,81.43
2019-04-12T18:44:18.892Z,81.33
2019-04-12T18:45:19.082Z,81.62
2019-04-12T18:46:21.801Z,81.71
2019-04-12T18:47:22.160Z,81.81
2019-04-12T18:48:22.277Z,81.9
2019-04-12T18:49:22.203Z,81.71
2019-04-12T18:50:22.258Z,81.9
2019-04-12T18:51:21.988Z,81.9
2019-04-12T18:52:22.655Z,82.28
2019-04-12T18:53:22.570Z,81.52
2019-04-12T18:54:22.930Z,81.9
2019-04-12T18:55:23.275Z,81.9
2019-04-12T18:56:23.341Z,81.81
2019-04-12T18:57:23.461Z,81.9
2019-04-12T18:58:23.498Z,81.99
2019-04-12T18:59:23.794Z,81.99
2019-04-12T19:00:24.137Z,81.81
2019-04-12T19:01:24.291Z,81.81
2019-04-12T19:02:29.495Z,82.37
2019-04-12T19:03:23.949Z,82.18
2019-04-12T19:04:24.237Z,82.28
2019-04-12T19:05:23.986Z,82.66
2019-04-12T19:06:24.382Z,82.66
2019-04-12T19:07:24.330Z,82.37
2019-04-12T19:08:24.422Z,82.56
2019-04-12T19:09:25.078Z,83.32
2019-04-12T19:10:25.193Z,83.42
2019-04-12T19:11:25.174Z,83.89
2019-04-12T19:12:24.898Z,83.42
2019-04-12T19:13:24.895Z,83.8
2019-04-12T19:14:24.971Z,84.17
2019-04-12T19:15:24.930Z,83.89
2019-04-12T19:16:25.248Z,84.36
2019-04-12T19:17:25.002Z,84.74
2019-04-12T19:18:25.447Z,84.55
2019-04-12T19:19:25.359Z,84.84
2019-04-12T19:20:25.675Z,85.03
2019-04-12T19:21:25.503Z,85.03
2019-04-12T19:22:25.493Z,84.84
2019-04-12T19:23:25.295Z,84.84
2019-04-12T19:24:25.578Z,84.84
2019-04-12T19:25:25.646Z,84.74
2019-04-12T19:26:25.617Z,84.84
2019-04-12T19:27:25.886Z,84.84
2019-04-12T19:28:25.630Z,84.74
2019-04-12T19:29:25.944Z,84.74
2019-04-12T19:30:25.761Z,84.84
2019-04-12T19:31:26.164Z,84.55
2019-04-12T19:32:26.093Z,84.84
2019-04-12T19:33:26.123Z,84.27
2019-04-12T19:34:26.430Z,84.65
2019-04-12T19:35:27.512Z,85.22
2019-04-12T19:36:27.048Z,84.74
2019-04-12T19:37:27.314Z,84.84
2019-04-12T19:38:27.692Z,84.55
2019-04-12T19:39:27.625Z,84.84
2019-04-12T19:40:27.630Z,84.84
2019-04-12T19:41:27.354Z,84.55
2019-04-12T19:42:27.675Z,84.74
2019-04-12T19:43:27.881Z,84.74
2019-04-12T19:44:27.696Z,84.55
2019-04-12T19:45:27.795Z,84.55
2019-04-12T19:46:27.986Z,84.65
2019-04-12T19:47:27.863Z,84.84
2019-04-12T19:48:28.198Z,84.65
2019-04-12T19:49:27.830Z,84.55
2019-04-12T19:50:27.885Z,84.94
2019-04-12T19:51:27.881Z,84.74
2019-04-12T19:52:28.400Z,84.74
2019-04-12T19:53:28.496Z,84.74
2019-04-12T19:54:28.470Z,85.03
2019-04-12T19:55:28.429Z,84.74
2019-04-12T19:56:28.528Z,84.84
2019-04-12T19:57:28.925Z,84.74
2019-04-12T19:58:28.622Z,85.03
2019-04-12T19:59:28.524Z,85.13
2019-04-12T20:00:28.781Z,84.65
2019-04-12T20:01:28.992Z,85.13
2019-04-12T20:02:29.296Z,85.22
2019-04-12T20:03:29.225Z,85.41
2019-04-12T20:04:29.650Z,85.31
2019-04-12T20:05:29.529Z,85.03
2019-04-12T20:06:29.807Z,85.69
2019-04-12T20:07:30.062Z,85.22
2019-04-12T20:08:32.124Z,85.5
2019-04-12T20:09:29.993Z,85.03
2019-04-12T20:10:30.720Z,84.94
2019-04-12T20:11:30.709Z,85.5
2019-04-12T20:12:30.698Z,85.22
2019-04-12T20:13:31.155Z,85.41
2019-04-12T20:14:31.252Z,85.03
2019-04-12T20:15:30.925Z,85.03
2019-04-12T20:16:30.952Z,85.13
2019-04-12T20:17:31.354Z,85.41
2019-04-12T20:18:31.265Z,85.13
2019-04-12T20:19:31.711Z,85.31
2019-04-12T20:20:31.847Z,85.17
2019-04-12T20:21:32.426Z,85.08
2019-04-12T20:22:32.262Z,85.08
2019-04-12T20:23:32.291Z,84.99
2019-04-12T20:24:32.717Z,85.17
2019-04-12T20:25:32.571Z,85.17
2019-04-12T20:26:32.761Z,84.7
2019-04-12T20:27:32.903Z,85.08
2019-04-12T20:28:33.327Z,85.46
2019-04-12T20:29:33.355Z,85.36
2019-04-12T20:30:33.888Z,85.08
2019-04-12T20:31:34.088Z,84.8
2019-04-12T20:32:33.768Z,84.89
2019-04-12T20:33:34.062Z,85.46
2019-04-12T20:34:34.091Z,85.46
2019-04-12T20:35:34.208Z,85.17
2019-04-12T20:36:34.131Z,84.99
2019-04-12T20:37:34.302Z,84.99
2019-04-12T20:38:34.048Z,85.27
2019-04-12T20:39:34.606Z,85.36
2019-04-12T20:40:35.113Z,85.17
2019-04-12T20:41:34.773Z,85.55
2019-04-12T20:42:35.442Z,85.36
2019-04-12T20:43:35.606Z,85.27
2019-04-12T20:44:35.755Z,85.36
2019-04-12T20:45:36.053Z,85.55
2019-04-12T20:46:35.703Z,85.27
2019-04-12T20:47:35.730Z,85.27
2019-04-12T20:48:36.158Z,84.99
2019-04-12T20:49:36.213Z,84.89
2019-04-12T20:50:36.744Z,85.17
2019-04-12T20:51:36.654Z,84.89
2019-04-12T20:52:36.666Z,85.27
2019-04-12T20:53:36.428Z,85.36
2019-04-12T20:54:36.709Z,85.17
2019-04-12T20:55:37.253Z,85.36
2019-04-12T20:56:37.182Z,85.55
2019-04-12T20:57:37.349Z,85.36
2019-04-12T20:58:37.370Z,85.36
2019-04-12T20:59:37.391Z,85.36
2019-04-12T21:00:50.205Z,85.27
2019-04-12T21:01:49.805Z,85.36
2019-04-12T21:02:49.834Z,85.17
2019-04-12T21:03:50.262Z,85.36
2019-04-12T21:04:50.282Z,85.08
2019-04-12T21:05:50.633Z,85.17
2019-04-12T21:06:50.329Z,85.36
2019-04-12T21:07:50.656Z,85.08
2019-04-12T21:08:50.664Z,84.89
2019-04-12T21:09:50.486Z,85.27
2019-04-12T21:10:50.993Z,85.55
2019-04-12T21:11:50.897Z,85.17
2019-04-12T21:12:50.941Z,85.46
2019-04-12T21:13:50.684Z,85.65
2019-04-12T21:14:50.951Z,85.46
2019-04-12T21:15:50.983Z,85.65
2019-04-12T21:16:51.179Z,85.74
2019-04-12T21:17:51.179Z,85.93
2019-04-12T21:18:53.138Z,85.84
2019-04-12T21:19:53.290Z,86.41
2019-04-12T21:20:53.218Z,85.84
2019-04-12T21:21:53.223Z,86.41
2019-04-12T21:22:53.345Z,85.93
2019-04-12T21:23:53.051Z,86.22
2019-04-12T21:24:53.279Z,86.03
2019-04-12T21:25:53.683Z,86.22
2019-04-12T21:26:53.680Z,86.22
2019-04-12T21:27:53.716Z,86.22
2019-04-12T21:28:53.740Z,86.31
2019-04-12T21:29:53.899Z,86.6
2019-04-12T21:30:53.638Z,86.41
2019-04-12T21:31:54.211Z,86.6
2019-04-12T21:32:55.750Z,86.5
2019-04-12T21:33:54.125Z,86.6
2019-04-12T21:34:54.015Z,86.6
2019-04-12T21:35:53.850Z,86.69
2019-04-12T21:36:54.171Z,86.79
2019-04-12T21:37:54.505Z,86.5
2019-04-12T21:38:54.408Z,86.79
2019-04-12T21:39:54.698Z,86.5
2019-04-12T21:40:55.588Z,86.5
2019-04-12T21:41:55.160Z,86.22
2019-04-12T21:42:55.399Z,86.31
2019-04-12T21:43:55.292Z,86.6
2019-04-12T21:44:55.314Z,86.79
2019-04-12T21:45:55.979Z,86.79
2019-04-12T21:46:55.899Z,86.79
2019-04-12T21:47:56.113Z,86.6
2019-04-12T21:48:56.294Z,86.31
2019-04-12T21:49:56.543Z,86.79
2019-04-12T21:50:56.525Z,86.69
2019-04-12T21:51:56.595Z,86.6
2019-04-12T21:52:56.991Z,86.5
2019-04-12T21:53:56.661Z,86.5
2019-04-12T21:54:56.953Z,86.41
2019-04-12T21:55:57.709Z,86.31
2019-04-12T21:56:57.712Z,86.6
2019-04-12T21:57:57.633Z,86.6
2019-04-12T21:58:57.642Z,86.79
2019-04-12T21:59:57.787Z,86.31
2019-04-12T22:00:57.741Z,86.41
2019-04-12T22:01:57.862Z,86.5
2019-04-12T22:02:58.018Z,86.12
2019-04-12T22:03:58.049Z,86.22
2019-04-12T22:04:57.787Z,85.74
2019-04-12T22:05:58.074Z,86.22
2019-04-12T22:06:58.105Z,86.41
2019-04-12T22:07:58.546Z,85.74
2019-04-12T22:08:58.667Z,85.84
2019-04-12T22:09:58.719Z,85.46
2019-04-12T22:10:58.745Z,85.93
2019-04-12T22:11:59.286Z,85.74
2019-04-12T22:12:59.203Z,85.65
2019-04-12T22:13:59.209Z,85.84
2019-04-12T22:14:59.263Z,86.03
2019-04-12T22:15:59.274Z,86.03
2019-04-12T22:16:59.391Z,85.65
2019-04-12T22:17:59.056Z,85.65
2019-04-12T22:18:59.825Z,85.65
2019-04-12T22:20:00.241Z,85.65
2019-04-12T22:21:00.355Z,85.93
2019-04-12T22:22:00.274Z,86.5
2019-04-12T22:23:00.038Z,85.65
2019-04-12T22:24:00.764Z,86.03
2019-04-12T22:25:00.472Z,85.65
2019-04-12T22:26:00.803Z,85.74
2019-04-12T22:27:00.993Z,86.22
2019-04-12T22:28:01.021Z,86.5
2019-04-12T22:29:01.461Z,86.6
2019-04-12T22:30:01.598Z,86.31
2019-04-12T22:31:01.797Z,86.12
2019-04-12T22:32:02.222Z,85.65
2019-04-12T22:33:02.674Z,85.65
2019-04-12T22:34:02.808Z,85.74
2019-04-12T22:35:02.730Z,85.93
2019-04-12T22:36:03.230Z,86.22
2019-04-12T22:37:03.240Z,86.31
2019-04-12T22:38:03.264Z,86.03
2019-04-12T22:39:03.401Z,86.41
2019-04-12T22:40:03.738Z,86.79
2019-04-12T22:41:04.278Z,86.88
2019-04-12T22:42:04.305Z,86.6